createdAt,value
2018-04-13T00:01:50.731Z,23.93
2018-04-13T00:04:27.065Z,21.83
2018-04-13T00:06:57.169Z,22.10
2018-04-13T00:09:33.335Z,20.93
2018-04-13T00:12:02.062Z,21.60
2018-04-13T00:14:38.131Z,21.70
2018-04-13T00:17:14.073Z,22.97
2018-04-13T00:19:50.380Z,22.60
2018-04-13T00:22:20.426Z,24.20
2018-04-13T00:24:49.362Z,21.87
2018-04-13T00:27:19.076Z,25.17
2018-04-13T00:29:48.022Z,24.87
2018-04-13T00:32:16.945Z,24.97
2018-04-13T00:34:47.228Z,25.40
2018-04-13T00:37:21.709Z,24.27
2018-04-13T00:39:50.656Z,23.20
2018-04-13T00:42:26.872Z,23.57
2018-04-13T00:44:55.824Z,24.37
2018-04-13T00:47:25.512Z,23.13
2018-04-13T00:50:00.258Z,24.50
2018-04-13T00:52:35.153Z,25.60
2018-04-13T00:55:10.066Z,26.17
2018-04-13T00:57:44.924Z,24.80
2018-04-13T01:00:20.726Z,24.63
2018-04-13T01:02:56.018Z,21.10
2018-04-13T01:05:32.068Z,19.63
2018-04-13T01:08:01.220Z,22.10
2018-04-13T01:10:30.164Z,21.63
2018-04-13T01:13:05.018Z,22.47
2018-04-13T01:15:35.457Z,22.17
2018-04-13T01:18:04.401Z,25.17
2018-04-13T01:20:39.143Z,24.43
2018-04-13T01:23:08.071Z,23.00
2018-04-13T01:25:36.987Z,25.47
2018-04-13T01:28:12.001Z,23.17
2018-04-13T01:30:46.703Z,23.00
2018-04-13T01:33:16.998Z,22.27
2018-04-13T01:35:45.692Z,22.10
2018-04-13T01:38:14.684Z,22.67
2018-04-13T01:40:49.249Z,22.93
2018-04-13T01:43:19.549Z,23.00
2018-04-13T01:45:49.629Z,23.23
2018-04-13T01:48:19.695Z,24.30
2018-04-13T01:50:49.212Z,25.40
2018-04-13T01:53:18.149Z,23.70
2018-04-13T01:55:47.827Z,23.90
2018-04-13T01:58:18.131Z,23.33
2018-04-13T02:00:46.848Z,22.63
2018-04-13T02:03:15.760Z,22.97
2018-04-13T02:05:44.715Z,23.30
2018-04-13T02:08:19.424Z,25.70
2018-04-13T02:10:49.866Z,23.30
2018-04-13T02:13:20.191Z,25.07
2018-04-13T02:15:48.902Z,27.17
2018-04-13T02:18:18.343Z,26.70
2018-04-13T02:20:48.016Z,28.03
2018-04-13T02:23:18.115Z,28.83
2018-04-13T02:25:47.093Z,30.50
2018-04-13T02:28:16.003Z,31.50
2018-04-13T02:30:44.937Z,30.97
2018-04-13T02:33:26.091Z,30.07
2018-04-13T02:35:55.003Z,30.30
2018-04-13T02:38:30.677Z,32.87
2018-04-13T02:41:11.387Z,32.23
2018-04-13T02:43:40.326Z,33.80
2018-04-13T02:46:15.141Z,33.83
2018-04-13T02:48:44.863Z,32.80
2018-04-13T02:51:13.801Z,33.40
2018-04-13T02:53:43.146Z,33.10
2018-04-13T02:56:12.951Z,34.13
2018-04-13T02:58:42.640Z,35.70
2018-04-13T03:01:11.569Z,33.53
2018-04-13T03:03:40.502Z,33.80
2018-04-13T03:06:09.532Z,32.77
2018-04-13T03:08:44.828Z,33.10
2018-04-13T03:11:13.728Z,34.10
2018-04-13T03:13:48.595Z,33.50
2018-04-13T03:16:17.508Z,32.93
2018-04-13T03:18:47.193Z,34.73
2018-04-13T03:21:16.899Z,34.47
2018-04-13T03:23:46.590Z,34.70
2018-04-13T03:26:15.530Z,33.87
2018-04-13T03:28:50.249Z,32.70
2018-04-13T03:31:19.188Z,33.70
2018-04-13T03:33:48.108Z,36.00
2018-04-13T03:36:18.016Z,35.77
2018-04-13T03:41:28.213Z,34.93
2018-04-13T03:44:02.996Z,33.40
2018-04-13T03:46:31.924Z,32.50
2018-04-13T03:49:00.858Z,34.57
2018-04-13T03:51:35.677Z,33.57
2018-04-13T03:54:04.608Z,35.10
2018-04-13T03:56:33.616Z,33.97
2018-04-13T03:59:08.375Z,36.30
2018-04-13T04:01:37.282Z,34.57
2018-04-13T04:04:17.839Z,34.13
2018-04-13T04:06:52.737Z,36.27
2018-04-13T04:09:22.993Z,36.27
2018-04-13T04:11:58.561Z,37.00
2018-04-13T04:14:39.647Z,36.37
2018-04-13T04:17:08.575Z,35.57
2018-04-13T04:19:44.699Z,37.63
2018-04-13T04:22:25.265Z,36.20
2018-04-13T04:25:06.199Z,35.43
2018-04-13T04:27:41.085Z,36.30
2018-04-13T04:30:10.795Z,36.83
2018-04-13T04:32:40.501Z,35.60
2018-04-13T04:35:10.224Z,34.27
2018-04-13T04:37:45.570Z,36.67
2018-04-13T04:40:14.515Z,37.80
2018-04-13T04:42:49.136Z,36.40
2018-04-13T04:45:23.834Z,33.67
2018-04-13T04:47:52.787Z,35.20
2018-04-13T04:50:23.061Z,35.77
2018-04-13T04:52:57.628Z,37.13
2018-04-13T04:55:26.627Z,40.40
2018-04-13T04:57:55.934Z,36.67
2018-04-13T05:00:32.214Z,36.40
2018-04-13T05:03:01.136Z,37.87
2018-04-13T05:05:30.099Z,36.60
2018-04-13T05:07:59.037Z,36.40
2018-04-13T05:10:30.216Z,37.80
2018-04-13T05:13:06.437Z,37.70
2018-04-13T05:15:42.685Z,38.90
2018-04-13T05:18:17.534Z,37.43
2018-04-13T05:20:52.199Z,38.70
2018-04-13T05:23:27.464Z,37.33
2018-04-13T05:25:56.391Z,38.00
2018-04-13T05:28:26.651Z,37.93
2018-04-13T05:30:56.244Z,39.70
2018-04-13T05:33:25.189Z,38.40
2018-04-13T05:35:54.143Z,38.00
2018-04-13T05:38:23.857Z,39.50
2018-04-13T05:40:54.123Z,36.57
2018-04-13T05:43:24.071Z,38.90
2018-04-13T05:45:53.741Z,36.43
2018-04-13T05:48:22.673Z,36.00
2018-04-13T05:50:53.129Z,39.17
2018-04-13T05:53:22.051Z,36.77
2018-04-13T05:55:51.361Z,35.60
2018-04-13T05:58:21.648Z,39.07
2018-04-13T06:01:02.137Z,37.37
2018-04-13T06:03:31.083Z,35.37
2018-04-13T06:06:01.190Z,36.87
2018-04-13T06:08:30.211Z,37.60
2018-04-13T06:11:04.950Z,36.40
2018-04-13T06:13:35.099Z,36.63
2018-04-13T06:16:04.073Z,36.77
2018-04-13T06:18:33.763Z,35.97
2018-04-13T06:21:10.088Z,34.97
2018-04-13T06:23:44.466Z,35.33
2018-04-13T06:26:20.588Z,37.50
2018-04-13T06:28:49.921Z,37.63
2018-04-13T06:31:24.774Z,33.67
2018-04-13T06:33:54.548Z,34.17
2018-04-13T06:36:24.262Z,33.53
2018-04-13T06:38:59.183Z,34.40
2018-04-13T06:41:29.580Z,33.77
2018-04-13T06:44:00.117Z,34.37
2018-04-13T06:46:29.072Z,34.87
2018-04-13T06:48:58.387Z,35.23
2018-04-13T06:51:28.099Z,31.43
2018-04-13T06:54:03.421Z,33.90
2018-04-13T06:56:32.736Z,33.57
2018-04-13T06:59:02.812Z,34.20
2018-04-13T07:01:31.757Z,33.90
2018-04-13T07:04:12.343Z,36.03
2018-04-13T07:06:41.271Z,37.17
2018-04-13T07:09:10.183Z,34.17
2018-04-13T07:11:40.310Z,34.53
2018-04-13T07:14:09.693Z,34.23
2018-04-13T07:16:45.491Z,33.30
2018-04-13T07:19:20.155Z,33.30
2018-04-13T07:21:49.115Z,33.67
2018-04-13T07:24:19.351Z,33.13
2018-04-13T07:26:49.111Z,31.80
2018-04-13T07:29:20.067Z,34.10
2018-04-13T07:31:49.513Z,34.00
2018-04-13T07:34:18.548Z,32.90
2018-04-13T07:36:54.161Z,31.03
2018-04-13T07:39:24.280Z,32.27
2018-04-13T07:41:53.937Z,31.13
2018-04-13T07:44:23.894Z,30.43
2018-04-13T07:46:58.431Z,30.77
2018-04-13T07:49:33.415Z,34.60
2018-04-13T07:52:02.488Z,33.07
2018-04-13T07:54:33.110Z,34.00
2018-04-13T07:57:15.089Z,37.33
2018-04-13T07:59:45.137Z,32.53
2018-04-13T08:02:13.664Z,32.30
2018-04-13T08:04:50.060Z,32.80
2018-04-13T08:07:19.057Z,33.90
2018-04-13T08:09:47.986Z,32.73
2018-04-13T08:12:17.085Z,33.30
2018-04-13T08:14:46.770Z,31.63
2018-04-13T08:17:17.412Z,33.27
2018-04-13T08:19:46.395Z,34.07
2018-04-13T08:22:22.760Z,37.37
2018-04-13T08:24:52.080Z,36.10
2018-04-13T08:27:21.052Z,40.05
2018-04-13T08:29:55.811Z,36.83
2018-04-13T08:32:37.212Z,35.72
2018-04-13T08:35:18.756Z,32.90
2018-04-13T08:37:54.047Z,31.17
2018-04-13T08:40:25.693Z,30.57
2018-04-13T08:42:56.253Z,30.33
2018-04-13T08:45:32.451Z,29.60
2018-04-13T08:48:03.773Z,35.20
2018-04-13T08:50:39.232Z,31.33
2018-04-13T08:53:08.215Z,32.77
2018-04-13T08:55:37.171Z,32.37
2018-04-13T08:58:07.104Z,29.53
2018-04-13T09:00:36.812Z,31.17
2018-04-13T09:03:07.975Z,31.77
2018-04-13T09:08:14.171Z,30.77
2018-04-13T09:10:44.976Z,29.70
2018-04-13T09:13:15.348Z,31.43
2018-04-13T09:15:45.391Z,32.27
2018-04-13T09:18:14.370Z,30.20
2018-04-13T09:20:43.883Z,31.83
2018-04-13T09:23:13.231Z,28.33
2018-04-13T09:25:43.723Z,29.73
2018-04-13T09:28:19.105Z,31.90
2018-04-13T09:30:49.156Z,28.70
2018-04-13T09:33:24.284Z,29.73
2018-04-13T09:35:59.266Z,28.97
2018-04-13T09:38:29.212Z,31.83
2018-04-13T09:41:00.060Z,29.93
2018-04-13T09:43:29.937Z,31.73
2018-04-13T09:45:59.287Z,28.73
2018-04-13T09:48:29.336Z,29.73
2018-04-13T09:50:59.608Z,28.60
2018-04-13T09:53:29.097Z,28.63
2018-04-13T09:55:59.157Z,30.10
2018-04-13T09:58:28.063Z,30.90
2018-04-13T10:01:04.183Z,30.77
2018-04-13T10:03:38.755Z,30.47
2018-04-13T10:06:08.103Z,30.93
2018-04-13T10:08:37.042Z,31.50
2018-04-13T10:11:07.345Z,31.20
2018-04-13T10:13:36.061Z,29.80
2018-04-13T10:16:04.986Z,31.60
2018-04-13T10:18:45.728Z,30.40
2018-04-13T10:21:22.943Z,30.90
2018-04-13T10:24:03.454Z,32.40
2018-04-13T10:26:39.288Z,33.20
2018-04-13T10:29:08.225Z,31.37
2018-04-13T10:31:38.493Z,34.03
2018-04-13T10:34:08.544Z,31.70
2018-04-13T10:36:38.608Z,31.83
2018-04-13T10:39:09.355Z,30.67
2018-04-13T10:41:39.454Z,31.83
2018-04-13T10:44:21.537Z,31.60
2018-04-13T10:46:50.477Z,32.07
2018-04-13T10:49:27.694Z,33.93
2018-04-13T10:51:56.429Z,31.60
2018-04-13T10:54:31.134Z,32.20
2018-04-13T10:57:00.458Z,32.13
2018-04-13T10:59:35.152Z,30.80
2018-04-13T11:02:11.204Z,32.77
2018-04-13T11:04:51.987Z,32.30
2018-04-13T11:07:22.253Z,30.20
2018-04-13T11:09:52.471Z,30.17
2018-04-13T11:12:22.759Z,29.73
2018-04-13T11:14:57.243Z,29.87
2018-04-13T11:17:33.433Z,29.97
2018-04-13T11:26:04.545Z,30.80
2018-04-13T11:28:44.529Z,30.77
2018-04-13T11:31:25.842Z,32.10
2018-04-13T11:34:06.201Z,32.60
2018-04-13T11:36:47.361Z,31.77
2018-04-13T11:39:27.728Z,35.90
2018-04-13T11:42:13.635Z,32.50
2018-04-13T11:44:54.590Z,31.73
2018-04-13T11:47:35.533Z,34.20
2018-04-13T11:50:16.997Z,32.17
2018-04-13T11:53:02.704Z,31.97
2018-04-13T11:55:48.793Z,33.30
2018-04-13T11:58:28.802Z,33.10
2018-04-13T12:01:09.337Z,33.87
2018-04-13T12:03:56.590Z,32.70
2018-04-13T12:06:38.391Z,36.00
2018-04-13T12:09:18.494Z,37.30
2018-04-13T12:11:58.765Z,36.70
2018-04-13T12:14:38.983Z,35.60
2018-04-13T12:17:19.168Z,36.83
2018-04-13T12:19:59.908Z,37.27
2018-04-13T12:22:40.009Z,41.03
2018-04-13T12:25:20.873Z,41.97
2018-04-13T12:28:02.557Z,39.37
2018-04-13T12:30:42.723Z,35.70
2018-04-13T12:33:23.356Z,35.70
2018-04-13T12:36:03.501Z,37.07
2018-04-13T12:38:43.624Z,38.90
2018-04-13T12:41:24.192Z,39.77
2018-04-13T12:44:05.105Z,39.10
2018-04-13T12:46:45.216Z,38.50
2018-04-13T12:49:26.407Z,38.73
2018-04-13T12:52:07.123Z,39.13
2018-04-13T12:54:47.901Z,39.80
2018-04-13T12:57:27.651Z,39.70
2018-04-13T13:00:07.624Z,38.97
2018-04-13T13:02:47.592Z,39.07
2018-04-13T13:05:27.704Z,37.47
2018-04-13T13:08:07.862Z,40.40
2018-04-13T13:10:48.496Z,40.13
2018-04-13T13:13:28.658Z,39.57
2018-04-13T13:16:10.377Z,38.10
2018-04-13T13:18:50.395Z,40.73
2018-04-13T13:21:31.157Z,39.57
2018-04-13T13:24:12.127Z,39.63
2018-04-13T13:26:52.338Z,41.00
2018-04-13T13:29:32.490Z,39.17
2018-04-13T13:32:12.475Z,37.17
2018-04-13T13:34:52.616Z,38.10
2018-04-13T13:37:32.693Z,40.40
2018-04-13T13:40:13.638Z,39.50
2018-04-13T13:42:54.980Z,40.10
2018-04-13T13:45:35.650Z,39.60
2018-04-13T13:48:16.465Z,39.80
2018-04-13T13:50:56.590Z,40.30
2018-04-13T13:53:37.403Z,41.20
2018-04-13T13:56:17.769Z,38.30
2018-04-13T13:58:58.282Z,41.37
2018-04-13T14:01:38.433Z,40.93
2018-04-13T14:04:18.499Z,41.30
2018-04-13T14:06:58.635Z,41.37
2018-04-13T14:09:39.425Z,40.77
2018-04-13T14:12:20.539Z,44.53
2018-04-13T14:15:00.702Z,42.33
2018-04-13T14:17:41.675Z,43.80
2018-04-13T14:20:22.949Z,40.90
2018-04-13T14:23:04.369Z,44.30
2018-04-13T14:25:46.005Z,43.77
2018-04-13T14:28:27.538Z,51.58
2018-04-13T14:31:07.412Z,44.87
2018-04-13T14:33:47.572Z,46.50
2018-04-13T14:36:28.934Z,45.23
2018-04-13T14:39:10.109Z,45.73
2018-04-13T14:41:50.053Z,50.33
2018-04-13T14:44:31.750Z,45.70
2018-04-13T14:47:13.089Z,45.90
2018-04-13T14:49:54.426Z,47.20
2018-04-13T14:52:35.651Z,46.73
2018-04-13T14:55:15.731Z,47.60
2018-04-13T14:57:56.559Z,46.10
2018-04-13T15:00:37.975Z,47.03
2018-04-13T15:03:18.077Z,48.23
2018-04-13T15:05:58.879Z,47.40
2018-04-13T15:08:38.875Z,49.20
2018-04-13T15:11:19.040Z,49.10
2018-04-13T15:13:59.425Z,47.80
2018-04-13T15:16:41.015Z,49.73
2018-04-13T15:19:22.501Z,50.17
2018-04-13T15:22:04.901Z,48.00
2018-04-13T15:24:44.935Z,50.30
2018-04-13T15:27:26.559Z,49.27
2018-04-13T15:30:06.551Z,49.97
2018-04-13T15:32:46.637Z,48.73
2018-04-13T15:35:26.651Z,47.10
2018-04-13T15:38:07.102Z,47.73
2018-04-13T15:40:47.269Z,47.47
2018-04-13T15:43:27.446Z,47.07
2018-04-13T15:46:07.913Z,46.50
2018-04-13T15:48:48.193Z,47.40
2018-04-13T15:51:28.628Z,45.93
2018-04-13T15:54:10.194Z,47.40
2018-04-13T15:56:51.608Z,46.80
2018-04-13T15:59:31.754Z,48.50
2018-04-13T16:02:11.806Z,47.80
2018-04-13T16:04:51.799Z,50.40
2018-04-13T16:07:33.302Z,46.53
2018-04-13T16:10:14.259Z,48.77
2018-04-13T16:12:55.666Z,47.37
2018-04-13T16:15:35.827Z,47.80
2018-04-13T16:18:16.027Z,48.37
2018-04-13T16:20:56.586Z,50.70
2018-04-13T16:23:36.825Z,51.97
2018-04-13T16:26:16.998Z,50.30
2018-04-13T16:28:58.478Z,50.40
2018-04-13T16:31:39.777Z,49.20
2018-04-13T16:34:21.399Z,48.90
2018-04-13T16:37:01.484Z,48.13
2018-04-13T16:39:42.938Z,47.37
2018-04-13T16:42:24.520Z,49.50
2018-04-13T16:45:04.506Z,51.60
2018-04-13T16:47:44.663Z,45.67
2018-04-13T16:50:25.608Z,48.43
2018-04-13T16:53:06.544Z,47.77
2018-04-13T16:55:47.544Z,49.50
2018-04-13T16:58:27.841Z,49.67
2018-04-13T17:01:07.943Z,50.27
2018-04-13T17:03:49.138Z,46.90
2018-04-13T17:06:30.655Z,49.70
2018-04-13T17:09:11.414Z,50.23
2018-04-13T17:11:53.030Z,49.67
2018-04-13T17:14:33.233Z,48.20
2018-04-13T17:17:13.433Z,47.30
2018-04-13T17:19:53.862Z,49.60
2018-04-13T17:22:35.203Z,49.50
2018-04-13T17:25:04.005Z,50.10
2018-04-13T17:27:32.932Z,50.47
2018-04-13T17:30:02.258Z,50.37
2018-04-13T17:32:31.201Z,49.83
2018-04-13T17:35:01.635Z,48.00
2018-04-13T17:37:30.993Z,49.10
2018-04-13T17:39:59.931Z,50.97
2018-04-13T17:42:30.006Z,55.10
2018-04-13T17:44:58.968Z,52.37
2018-04-13T17:47:28.295Z,52.53
2018-04-13T17:49:57.625Z,54.10
2018-04-13T17:52:27.705Z,52.60
2018-04-13T17:54:56.647Z,52.30
2018-04-13T17:57:25.621Z,52.37
2018-04-13T17:59:54.561Z,54.10
2018-04-13T18:02:24.976Z,51.23
2018-04-13T18:04:54.807Z,52.10
2018-04-13T18:07:24.575Z,54.37
2018-04-13T18:09:54.319Z,51.77
2018-04-13T18:12:24.605Z,50.90
2018-04-13T18:14:54.956Z,53.30
2018-04-13T18:17:24.668Z,52.40
2018-04-13T18:19:53.622Z,52.77
2018-04-13T18:22:23.342Z,51.77
2018-04-13T18:24:53.654Z,54.47
2018-04-13T18:27:22.392Z,54.10
2018-04-13T18:29:51.346Z,56.87
2018-04-13T18:32:21.098Z,54.70
2018-04-13T18:34:50.049Z,54.90
2018-04-13T18:37:19.369Z,55.03
2018-04-13T18:39:49.028Z,56.63
2018-04-13T18:42:19.354Z,53.00
2018-04-13T18:44:50.374Z,53.90
2018-04-13T18:47:19.130Z,49.77
2018-04-13T18:49:49.427Z,50.50
2018-04-13T18:52:19.177Z,47.87
2018-04-13T18:54:48.898Z,46.57
2018-04-13T18:57:19.222Z,46.30
2018-04-13T18:59:48.730Z,45.00
2018-04-13T19:02:17.705Z,45.87
2018-04-13T19:04:48.949Z,46.47
2018-04-13T19:07:17.670Z,45.67
2018-04-13T19:09:46.631Z,47.47
2018-04-13T19:12:15.609Z,43.07
2018-04-13T19:14:44.607Z,40.73
2018-04-13T19:17:14.921Z,46.13
2018-04-13T19:19:43.706Z,47.47
2018-04-13T19:22:12.688Z,44.20
2018-04-13T19:24:43.002Z,46.13
2018-04-13T19:27:13.080Z,46.27
2018-04-13T19:29:41.844Z,53.03
2018-04-13T19:32:10.802Z,46.13
2018-04-13T19:34:42.107Z,52.80
2018-04-13T19:37:12.599Z,52.17
2018-04-13T19:39:42.699Z,52.00
2018-04-13T19:42:12.805Z,52.70
2018-04-13T19:44:43.106Z,54.53
2018-04-13T19:47:12.631Z,56.90
2018-04-13T19:49:41.615Z,61.03
2018-04-13T19:52:12.068Z,59.97
2018-04-13T19:54:41.082Z,56.33
2018-04-13T19:57:10.087Z,54.27
2018-04-13T19:59:39.824Z,57.60
2018-04-13T20:02:08.782Z,58.97
2018-04-13T20:04:38.590Z,57.60
2018-04-13T20:07:08.297Z,57.30
2018-04-13T20:09:39.334Z,53.10
2018-04-13T20:12:08.075Z,55.83
2018-04-13T20:14:37.459Z,54.17
2018-04-13T20:17:06.426Z,58.00
2018-04-13T20:19:36.537Z,57.23
2018-04-13T20:22:05.947Z,57.90
2018-04-13T20:24:36.323Z,55.03
2018-04-13T20:27:06.471Z,56.53
2018-04-13T20:29:35.437Z,57.20
2018-04-13T20:32:05.530Z,59.70
2018-04-13T20:34:35.278Z,56.40
2018-04-13T20:37:05.198Z,59.43
2018-04-13T20:39:34.184Z,61.00
2018-04-13T20:42:03.177Z,62.60
2018-04-13T20:44:32.273Z,56.70
2018-04-13T20:47:02.613Z,57.13
2018-04-13T20:49:31.367Z,57.70
2018-04-13T20:52:00.319Z,55.03
2018-04-13T20:54:29.707Z,55.57
2018-04-13T20:56:58.687Z,55.03
2018-04-13T20:59:27.632Z,57.37
2018-04-13T21:01:57.361Z,55.20
2018-04-13T21:04:26.428Z,54.87
2018-04-13T21:06:56.532Z,51.70
2018-04-13T21:09:25.529Z,48.40
2018-04-13T21:11:55.325Z,47.60
2018-04-13T21:14:24.330Z,44.10
2018-04-13T21:16:53.670Z,45.53
2018-04-13T21:19:24.036Z,46.10
2018-04-13T21:21:53.576Z,43.73
2018-04-13T21:24:23.874Z,43.73
2018-04-13T21:26:54.386Z,41.37
2018-04-13T21:29:24.483Z,42.40
2018-04-13T21:31:55.673Z,45.33
2018-04-13T21:34:25.093Z,42.30
2018-04-13T21:36:54.488Z,42.00
2018-04-13T21:39:24.532Z,38.20
2018-04-13T21:41:53.496Z,41.47
2018-04-13T21:44:23.176Z,42.80
2018-04-13T21:46:52.514Z,43.17
2018-04-13T21:49:21.440Z,41.57
2018-04-13T21:51:50.408Z,43.10
2018-04-13T21:54:19.749Z,41.80
2018-04-13T21:56:48.684Z,44.97
2018-04-13T21:59:18.803Z,39.27
2018-04-13T22:01:47.700Z,38.40
2018-04-13T22:04:17.998Z,42.20
2018-04-13T22:06:47.455Z,37.83
2018-04-13T22:09:16.411Z,38.57
2018-04-13T22:11:46.124Z,38.40
2018-04-13T22:14:27.033Z,35.50
2018-04-13T22:16:56.351Z,39.33
2018-04-13T22:19:25.281Z,34.93
2018-04-13T22:21:54.980Z,32.53
2018-04-13T22:24:24.674Z,35.50
2018-04-13T22:26:53.603Z,33.87
2018-04-13T22:29:23.305Z,35.23
2018-04-13T22:31:52.234Z,33.83
2018-04-13T22:34:21.169Z,33.30
2018-04-13T22:36:50.169Z,32.43
2018-04-13T22:39:19.112Z,32.40
2018-04-13T22:41:48.051Z,31.07
2018-04-13T22:44:19.771Z,31.73
2018-04-13T22:46:48.675Z,30.67
2018-04-13T22:49:17.622Z,32.30
2018-04-13T22:51:46.549Z,26.97
2018-04-13T22:54:15.483Z,30.70
2018-04-13T22:56:44.797Z,28.67
2018-04-13T22:59:13.736Z,27.33
2018-04-13T23:01:42.666Z,24.77
2018-04-13T23:04:11.580Z,27.43
2018-04-13T23:06:40.509Z,26.20
2018-04-13T23:09:09.453Z,24.77
2018-04-13T23:11:39.533Z,28.23
2018-04-13T23:14:08.459Z,26.40
2018-04-13T23:31:32.615Z,29.63
2018-04-13T23:34:02.285Z,32.13
2018-04-13T23:36:31.236Z,27.50
2018-04-13T23:39:00.147Z,30.60
2018-04-13T23:41:29.099Z,32.47
2018-04-13T23:43:58.774Z,29.43
2018-04-13T23:46:27.720Z,30.87
2018-04-13T23:48:56.635Z,29.03
2018-04-13T23:51:25.553Z,31.10
2018-04-13T23:53:54.479Z,31.30
2018-04-13T23:56:24.738Z,30.03
2018-04-13T23:58:54.235Z,32.13
